Time;durP1;ratioP1;P1;durP2;ratioP2;P2;SDS_P1;SDS_P2;PMS_P1;PMS_P2;Temp;Humidity;BMP_temperature;BMP_pressure;BME280_temperature;BME280_humidity;BME280_pressure;Samples;Min_cycle;Max_cycle;Signal;HPM_P1;HPM_P2
2022/08/16 00:01:49;;;;;;;6.75;6.00;;;19.30;99.90;;;;;;4330768;28;10001435;-71
2022/08/16 00:04:15;;;;;;;6.50;5.90;;;19.30;99.90;;;;;;5034212;28;20048;-71
2022/08/16 00:06:41;;;;;;;9.10;6.07;;;19.20;99.90;;;;;;5033416;28;20033;-71
2022/08/16 00:09:08;;;;;;;9.48;6.53;;;19.20;99.90;;;;;;5034906;28;20025;-70
2022/08/16 00:11:34;;;;;;;9.35;6.47;;;19.10;99.90;;;;;;5030780;28;20056;-70
2022/08/16 00:14:00;;;;;;;8.02;6.40;;;19.10;99.90;;;;;;5038055;28;20029;-71
2022/08/16 00:16:30;;;;;;;9.45;5.93;;;19.00;99.90;;;;;;5037762;28;20582;-71
2022/08/16 00:18:56;;;;;;;9.30;5.80;;;19.00;99.90;;;;;;5034818;28;20028;-71
2022/08/16 00:21:22;;;;;;;6.93;6.22;;;18.90;99.90;;;;;;5037522;28;20121;-71
2022/08/16 00:23:47;;;;;;;7.22;5.53;;;18.90;99.90;;;;;;5031823;28;20666;-72
2022/08/16 00:26:13;;;;;;;7.75;5.60;;;18.90;99.90;;;;;;5035958;28;20056;-71
2022/08/16 00:28:38;;;;;;;8.50;5.75;;;18.80;99.90;;;;;;5032134;28;20037;-70
2022/08/16 00:31:04;;;;;;;5.75;5.22;;;18.80;99.90;;;;;;5036936;28;20631;-70
2022/08/16 00:33:30;;;;;;;7.32;5.07;;;18.70;99.90;;;;;;5023718;28;20045;-71
2022/08/16 00:35:55;;;;;;;5.97;5.20;;;18.70;99.90;;;;;;5022261;28;20026;-71
2022/08/16 00:38:21;;;;;;;6.35;5.05;;;18.70;99.90;;;;;;5026000;28;20034;-71
2022/08/16 00:40:50;;;;;;;5.82;5.28;;;18.70;99.90;;;;;;5018851;28;20406;-70
2022/08/16 00:43:21;;;;;;;5.57;5.07;;;18.70;99.90;;;;;;5017810;28;20446;-70
2022/08/16 00:46:10;;;;;;;8.95;4.90;;;18.70;99.90;;;;;;5013828;28;20053;-70
2022/08/16 00:48:37;;;;;;;7.63;5.10;;;18.70;99.90;;;;;;5018206;28;20029;-71
2022/08/16 00:51:03;;;;;;;6.57;5.13;;;18.70;99.90;;;;;;5021122;28;20049;-71
2022/08/16 00:53:29;;;;;;;6.07;5.00;;;18.70;99.90;;;;;;5012120;28;20033;-70
2022/08/16 00:55:59;;;;;;;6.63;5.15;;;18.70;99.90;;;;;;5023665;28;20113;-71
2022/08/16 00:58:27;;;;;;;7.25;5.00;;;18.70;99.90;;;;;;5020423;28;20104;-71
2022/08/16 01:00:54;;;;;;;7.93;4.97;;;18.70;99.90;;;;;;5020717;28;20546;-71
2022/08/16 01:03:21;;;;;;;6.60;4.82;;;18.60;99.90;;;;;;5019658;28;20040;-70
2022/08/16 01:05:47;;;;;;;6.35;5.25;;;18.60;99.90;;;;;;5018181;28;20716;-71
2022/08/16 01:08:17;;;;;;;8.32;5.20;;;18.50;99.90;;;;;;5025179;28;20029;-70
2022/08/16 01:10:42;;;;;;;6.20;4.68;;;18.50;99.90;;;;;;5019575;28;20036;-70
2022/08/16 01:13:18;;;;;;;8.93;5.40;;;18.50;99.90;;;;;;5015652;28;20112;-71
2022/08/16 01:15:54;;;;;;;7.72;5.30;;;18.50;99.90;;;;;;5014940;28;20068;-71
2022/08/16 01:18:23;;;;;;;6.03;5.22;;;18.40;99.90;;;;;;5018301;28;20065;-71
2022/08/16 01:21:14;;;;;;;7.43;5.40;;;18.40;99.90;;;;;;5016733;28;20509;-70
2022/08/16 01:24:09;;;;;;;6.43;5.68;;;18.40;99.90;;;;;;4980132;28;20625;-70
2022/08/16 01:26:36;;;;;;;6.30;5.68;;;18.30;99.90;;;;;;5019144;28;20030;-70
2022/08/16 01:29:07;;;;;;;7.43;5.38;;;18.30;99.90;;;;;;5010696;28;20037;-70
2022/08/16 01:31:32;;;;;;;7.88;5.30;;;18.30;99.90;;;;;;5008862;28;20033;-71
2022/08/16 01:33:58;;;;;;;8.00;5.15;;;18.20;99.90;;;;;;5015204;28;20495;-71
2022/08/16 01:36:24;;;;;;;7.07;5.03;;;18.20;99.90;;;;;;5014767;28;20033;-71
2022/08/16 01:38:50;;;;;;;10.07;5.50;;;18.10;99.90;;;;;;5016755;28;20520;-70
2022/08/16 01:41:26;;;;;;;10.95;5.55;;;18.20;99.90;;;;;;5006885;28;20069;-70
2022/08/16 01:43:52;;;;;;;6.78;5.07;;;18.20;99.90;;;;;;5018310;28;20026;-71
2022/08/16 01:46:34;;;;;;;6.18;5.57;;;18.10;99.90;;;;;;5020222;28;20053;-71
2022/08/16 01:49:06;;;;;;;9.93;6.05;;;18.10;99.90;;;;;;5019533;28;20052;-70
2022/08/16 01:51:32;;;;;;;7.13;5.50;;;18.10;99.90;;;;;;5024070;28;20575;-70
2022/08/16 01:53:58;;;;;;;7.90;5.90;;;18.00;99.90;;;;;;5028316;28;20025;-70
2022/08/16 01:56:25;;;;;;;9.02;6.13;;;18.00;99.90;;;;;;5025642;28;20041;-71
2022/08/16 01:58:53;;;;;;;7.93;5.45;;;17.90;99.90;;;;;;5026609;28;20068;-70
2022/08/16 02:01:19;;;;;;;6.15;5.55;;;17.90;99.90;;;;;;5019127;28;20162;-70
2022/08/16 02:03:45;;;;;;;7.95;6.05;;;17.90;99.90;;;;;;5021342;28;20021;-71
2022/08/16 02:06:10;;;;;;;6.90;6.20;;;17.80;99.90;;;;;;5023453;28;20029;-71
2022/08/16 02:08:36;;;;;;;6.72;6.05;;;17.70;99.90;;;;;;5017730;28;20028;-71
2022/08/16 02:11:07;;;;;;;7.00;6.20;;;17.70;99.90;;;;;;5020447;28;20083;-71
2022/08/16 02:13:34;;;;;;;9.25;6.57;;;17.70;99.90;;;;;;5020441;28;20037;-71
2022/08/16 02:16:01;;;;;;;6.72;5.82;;;17.60;99.90;;;;;;5024436;28;20034;-71
2022/08/16 02:18:27;;;;;;;7.25;5.72;;;17.50;99.90;;;;;;5018892;28;20120;-71
2022/08/16 02:20:53;;;;;;;8.80;5.90;;;17.60;99.90;;;;;;5025154;28;20096;-70
2022/08/16 02:23:19;;;;;;;6.30;5.70;;;17.50;99.90;;;;;;5020856;28;20212;-71
2022/08/16 02:25:46;;;;;;;9.38;6.28;;;17.50;99.90;;;;;;5027403;28;20033;-71
2022/08/16 02:28:12;;;;;;;8.90;6.28;;;17.50;99.90;;;;;;5018794;28;20033;-71
2022/08/16 02:30:39;;;;;;;8.77;5.97;;;17.50;99.90;;;;;;5022230;28;20639;-70
2022/08/16 02:33:04;;;;;;;7.75;5.97;;;17.50;99.90;;;;;;5016873;28;20079;-71
2022/08/16 02:35:31;;;;;;;7.60;5.80;;;17.40;99.90;;;;;;5023339;28;20030;-70
2022/08/16 02:37:57;;;;;;;6.85;6.15;;;17.40;99.90;;;;;;5024053;28;20021;-70
2022/08/16 02:40:24;;;;;;;6.00;5.47;;;17.40;99.90;;;;;;5026097;28;20038;-70
2022/08/16 02:42:50;;;;;;;6.03;5.25;;;17.40;99.90;;;;;;5014559;28;20398;-70
2022/08/16 02:45:18;;;;;;;8.82;5.90;;;17.40;99.90;;;;;;5021954;28;20179;-71
2022/08/16 02:47:44;;;;;;;7.53;5.82;;;17.40;99.90;;;;;;5022514;28;20052;-70
2022/08/16 02:50:09;;;;;;;6.90;6.03;;;17.40;99.90;;;;;;5027776;28;20611;-70
2022/08/16 02:52:35;;;;;;;6.53;5.90;;;17.50;99.90;;;;;;5018854;28;20698;-70
2022/08/16 02:55:01;;;;;;;7.03;6.32;;;17.50;99.90;;;;;;5009536;28;20044;-71
2022/08/16 02:57:26;;;;;;;9.77;6.50;;;17.50;99.90;;;;;;5020957;28;20444;-70
2022/08/16 02:59:52;;;;;;;10.55;7.30;;;17.50;99.90;;;;;;5022924;28;20048;-70
2022/08/16 03:02:18;;;;;;;9.13;7.10;;;17.50;99.90;;;;;;5021946;28;20037;-71
2022/08/16 03:04:44;;;;;;;7.70;6.82;;;17.50;99.90;;;;;;5021670;28;20072;-70
2022/08/16 03:07:10;;;;;;;8.77;7.03;;;17.60;99.90;;;;;;5012322;28;20025;-70
2022/08/16 03:09:36;;;;;;;10.02;7.10;;;17.60;99.90;;;;;;5016003;28;20109;-71
2022/08/16 03:12:04;;;;;;;7.93;7.03;;;17.50;99.90;;;;;;5020440;28;20037;-70
2022/08/16 03:14:30;;;;;;;9.15;8.00;;;17.50;99.90;;;;;;5019894;28;20076;-71
2022/08/16 03:16:55;;;;;;;8.35;7.55;;;17.50;99.90;;;;;;5012486;28;20205;-71
2022/08/16 03:19:21;;;;;;;8.98;7.03;;;17.40;99.90;;;;;;5022260;28;20494;-71
2022/08/16 03:21:47;;;;;;;10.60;7.70;;;17.50;99.90;;;;;;5021850;28;20036;-71
2022/08/16 03:24:13;;;;;;;8.65;7.20;;;17.50;99.90;;;;;;5020056;28;20065;-70
2022/08/16 03:26:39;;;;;;;9.90;7.38;;;17.40;99.90;;;;;;5024280;28;20048;-71
2022/08/16 03:29:05;;;;;;;10.75;7.30;;;17.40;99.90;;;;;;5020190;28;20029;-71
2022/08/16 03:31:31;;;;;;;9.52;7.05;;;17.40;99.90;;;;;;5013157;28;20499;-71
2022/08/16 03:33:56;;;;;;;10.20;7.28;;;17.40;99.90;;;;;;5021403;28;20026;-71
2022/08/16 03:36:22;;;;;;;9.20;7.25;;;17.40;99.90;;;;;;5012219;28;20030;-70
2022/08/16 03:38:48;;;;;;;10.27;7.97;;;17.40;99.90;;;;;;5024492;28;20108;-71
2022/08/16 03:41:14;;;;;;;10.00;7.53;;;17.40;99.90;;;;;;5022476;28;20409;-71
2022/08/16 03:43:40;;;;;;;9.70;7.60;;;17.40;99.90;;;;;;5024273;28;20021;-71
2022/08/16 03:46:05;;;;;;;10.07;7.50;;;17.40;99.90;;;;;;5019366;28;20029;-70
2022/08/16 03:48:36;;;;;;;9.50;7.68;;;17.40;99.90;;;;;;5015284;28;20459;-70
2022/08/16 03:51:03;;;;;;;10.60;6.65;;;17.40;99.90;;;;;;5022522;28;20087;-70
2022/08/16 03:53:30;;;;;;;9.15;7.63;;;17.40;99.90;;;;;;5015202;28;20069;-71
2022/08/16 03:55:55;;;;;;;7.90;6.63;;;17.40;99.90;;;;;;5021771;28;20569;-69
2022/08/16 03:58:21;;;;;;;9.63;7.38;;;17.40;99.90;;;;;;5019528;28;20124;-70
2022/08/16 04:00:48;;;;;;;7.57;6.57;;;17.40;99.90;;;;;;5017910;28;20840;-71
2022/08/16 04:03:14;;;;;;;8.23;7.32;;;17.40;99.90;;;;;;5012320;28;20040;-71
2022/08/16 04:05:46;;;;;;;11.25;7.05;;;17.40;99.90;;;;;;5020446;28;20033;-70
2022/08/16 04:08:12;;;;;;;8.98;7.22;;;17.40;99.90;;;;;;5032794;28;21014;-70
2022/08/16 04:10:38;;;;;;;9.00;7.25;;;17.40;99.90;;;;;;5021386;28;20052;-70
2022/08/16 04:13:04;;;;;;;9.43;6.70;;;17.40;99.90;;;;;;5021126;28;20650;-70
2022/08/16 04:15:30;;;;;;;11.25;7.63;;;17.30;99.90;;;;;;5013918;28;20040;-70
2022/08/16 04:17:57;;;;;;;12.55;8.15;;;17.30;99.90;;;;;;5020873;28;20029;-70
2022/08/16 04:20:24;;;;;;;7.85;7.10;;;17.40;99.90;;;;;;5024902;28;20481;-70
2022/08/16 04:22:50;;;;;;;7.70;6.88;;;17.30;99.90;;;;;;5014102;28;20635;-71
2022/08/16 04:25:16;;;;;;;8.95;7.60;;;17.40;99.90;;;;;;5016930;28;20034;-70
2022/08/16 04:27:42;;;;;;;10.40;7.53;;;17.40;99.90;;;;;;5025291;28;20080;-71
2022/08/16 04:30:12;;;;;;;9.63;8.30;;;17.40;99.90;;;;;;5019461;28;20095;-71
2022/08/16 04:32:38;;;;;;;9.98;7.18;;;17.30;99.90;;;;;;5015452;28;20030;-70
2022/08/16 04:35:06;;;;;;;10.13;8.50;;;17.30;99.90;;;;;;5016399;28;20112;-70
2022/08/16 04:37:32;;;;;;;8.15;6.97;;;17.30;99.90;;;;;;5021186;28;20651;-71
2022/08/16 04:39:57;;;;;;;8.90;7.93;;;17.30;99.90;;;;;;5024142;28;20445;-71
2022/08/16 04:42:23;;;;;;;8.52;7.60;;;17.30;99.90;;;;;;5015118;28;20045;-70
2022/08/16 04:44:48;;;;;;;7.20;6.50;;;17.30;99.90;;;;;;5017973;28;20018;-70
2022/08/16 04:47:14;;;;;;;7.25;6.50;;;17.30;99.90;;;;;;5011661;28;20040;-71
2022/08/16 04:49:40;;;;;;;8.13;6.30;;;17.30;99.90;;;;;;5015595;28;20465;-71
2022/08/16 04:52:05;;;;;;;11.20;6.68;;;17.30;99.90;;;;;;5014157;28;20106;-71
2022/08/16 04:54:31;;;;;;;12.40;7.38;;;17.30;99.90;;;;;;5014639;28;20083;-71
2022/08/16 04:56:57;;;;;;;7.25;6.53;;;17.30;99.90;;;;;;5016446;28;20091;-71
2022/08/16 04:59:22;;;;;;;7.78;6.45;;;17.30;99.90;;;;;;5017608;28;20032;-71
2022/08/16 05:01:48;;;;;;;8.63;7.00;;;17.30;99.90;;;;;;5020300;28;20567;-71
2022/08/16 05:04:14;;;;;;;9.30;6.45;;;17.30;99.90;;;;;;5014430;28;20041;-70
2022/08/16 05:06:40;;;;;;;7.80;7.00;;;17.30;99.90;;;;;;5022141;28;20064;-70
2022/08/16 05:09:06;;;;;;;9.43;7.32;;;17.30;99.90;;;;;;5022314;28;20029;-70
2022/08/16 05:11:32;;;;;;;10.95;8.50;;;17.40;99.90;;;;;;5018499;28;20038;-71
2022/08/16 05:14:00;;;;;;;9.27;8.30;;;17.40;99.90;;;;;;5015808;28;20030;-70
2022/08/16 05:16:29;;;;;;;9.82;7.75;;;17.40;99.90;;;;;;5022714;28;20033;-71
2022/08/16 05:18:57;;;;;;;11.30;8.30;;;17.40;99.90;;;;;;5014997;28;20057;-71
2022/08/16 05:21:23;;;;;;;13.32;8.48;;;17.50;99.90;;;;;;5013249;28;20112;-70
2022/08/16 05:23:51;;;;;;;12.68;8.38;;;17.50;99.90;;;;;;5024415;28;20060;-70
2022/08/16 05:26:17;;;;;;;9.70;7.60;;;17.50;99.90;;;;;;5015058;28;20068;-71
2022/08/16 05:28:42;;;;;;;10.23;7.07;;;17.60;99.90;;;;;;5010592;28;20059;-71
2022/08/16 05:31:08;;;;;;;10.45;7.57;;;17.50;99.90;;;;;;5016786;28;20047;-70
2022/08/16 05:33:33;;;;;;;12.63;8.52;;;17.50;99.90;;;;;;5016388;28;20477;-70
2022/08/16 05:35:59;;;;;;;12.95;8.18;;;17.60;99.90;;;;;;5024057;28;20034;-70
2022/08/16 05:38:28;;;;;;;9.65;8.13;;;17.60;99.90;;;;;;5019777;28;20034;-70
2022/08/16 05:40:55;;;;;;;14.10;7.50;;;17.60;99.90;;;;;;5011752;28;20038;-70
2022/08/16 05:43:21;;;;;;;11.15;7.88;;;17.60;99.90;;;;;;5016431;28;20045;-71
2022/08/16 05:45:47;;;;;;;9.50;8.45;;;17.70;99.90;;;;;;5015574;28;20084;-70
2022/08/16 05:48:13;;;;;;;9.98;7.78;;;17.70;99.90;;;;;;5016158;28;20079;-70
2022/08/16 05:50:39;;;;;;;13.13;8.98;;;17.80;99.90;;;;;;5017037;28;20021;-71
2022/08/16 05:53:05;;;;;;;11.43;8.50;;;17.80;99.90;;;;;;5017150;28;20026;-70
2022/08/16 05:55:31;;;;;;;12.38;7.95;;;17.90;99.90;;;;;;5023120;28;20533;-71
2022/08/16 05:57:56;;;;;;;10.00;8.35;;;17.90;99.90;;;;;;5023753;28;20050;-70
2022/08/16 06:00:22;;;;;;;12.48;8.80;;;18.00;99.90;;;;;;5013064;28;20088;-71
2022/08/16 06:02:48;;;;;;;10.15;8.05;;;18.00;99.90;;;;;;5017368;28;20041;-71
2022/08/16 06:05:13;;;;;;;10.27;8.20;;;18.10;99.90;;;;;;5014583;28;20038;-71
2022/08/16 06:07:39;;;;;;;8.38;6.78;;;18.10;99.90;;;;;;5015418;28;20486;-71
2022/08/16 06:10:06;;;;;;;8.20;7.40;;;18.20;99.90;;;;;;5016733;28;20489;-71
2022/08/16 06:12:32;;;;;;;8.85;7.00;;;18.20;99.90;;;;;;5021825;28;20048;-71
2022/08/16 06:15:04;;;;;;;8.95;7.93;;;18.30;99.90;;;;;;5016538;28;20021;-71
2022/08/16 06:17:30;;;;;;;9.02;7.57;;;18.40;99.90;;;;;;5016878;28;20068;-70
2022/08/16 06:19:56;;;;;;;10.93;8.00;;;18.40;99.90;;;;;;5016289;28;20079;-70
2022/08/16 06:22:21;;;;;;;10.02;7.80;;;18.50;99.90;;;;;;5013990;28;20034;-70
2022/08/16 06:24:47;;;;;;;11.50;8.00;;;18.50;99.90;;;;;;5017178;28;20029;-70
2022/08/16 06:27:13;;;;;;;11.80;8.60;;;18.60;99.90;;;;;;5016259;28;20112;-70
2022/08/16 06:29:38;;;;;;;11.63;8.15;;;18.60;99.90;;;;;;5016543;28;20445;-70
2022/08/16 06:32:05;;;;;;;12.27;7.93;;;18.70;99.90;;;;;;5013200;28;20048;-70
2022/08/16 06:34:31;;;;;;;10.75;8.77;;;18.70;99.90;;;;;;5020227;28;20492;-71
2022/08/16 06:36:56;;;;;;;10.82;7.38;;;18.80;99.90;;;;;;5014471;28;20416;-70
2022/08/16 06:39:22;;;;;;;9.05;7.18;;;18.80;99.90;;;;;;5019196;28;20036;-70
2022/08/16 06:41:48;;;;;;;9.30;6.45;;;18.90;99.90;;;;;;5023013;28;20029;-70
2022/08/16 06:44:14;;;;;;;9.95;6.30;;;19.00;99.90;;;;;;5024444;28;20239;-71
2022/08/16 06:46:39;;;;;;;10.25;6.95;;;19.00;99.90;;;;;;5022109;28;20128;-70
2022/08/16 06:49:10;;;;;;;10.10;6.43;;;19.20;99.90;;;;;;5021268;28;20036;-70
2022/08/16 06:51:38;;;;;;;7.18;5.93;;;19.30;99.90;;;;;;5020385;28;20029;-70
2022/08/16 06:54:04;;;;;;;7.93;6.28;;;19.50;99.90;;;;;;5019138;28;20767;-70
2022/08/16 06:56:30;;;;;;;6.88;6.20;;;19.70;99.90;;;;;;5018303;28;20543;-70
2022/08/16 06:59:33;;;;;;;7.78;5.93;;;19.90;99.90;;;;;;5021624;28;20129;-73
2022/08/16 07:01:58;;;;;;;6.57;5.45;;;20.20;99.90;;;;;;5014543;28;20021;-73
2022/08/16 07:04:25;;;;;;;8.40;5.75;;;20.50;99.90;;;;;;5008998;28;20040;-73
2022/08/16 07:06:50;;;;;;;7.40;5.90;;;20.70;99.90;;;;;;5008851;28;20022;-74
2022/08/16 07:09:16;;;;;;;7.85;6.65;;;21.00;99.90;;;;;;5009529;28;20401;-74
2022/08/16 07:11:42;;;;;;;6.60;5.90;;;21.30;99.90;;;;;;5016828;28;20026;-73
2022/08/16 07:14:07;;;;;;;6.60;5.68;;;21.50;99.90;;;;;;5016221;28;20018;-74
2022/08/16 07:16:33;;;;;;;6.20;5.28;;;21.70;99.90;;;;;;5021356;28;20025;-74
2022/08/16 07:18:59;;;;;;;7.82;6.10;;;22.00;99.90;;;;;;5020315;28;20026;-74
2022/08/16 07:21:24;;;;;;;7.22;6.38;;;22.20;99.90;;;;;;5018621;28;20037;-74
2022/08/16 07:23:50;;;;;;;6.85;5.63;;;22.40;99.90;;;;;;5027654;28;20028;-73
2022/08/16 07:26:23;;;;;;;5.60;5.10;;;22.50;99.90;;;;;;5010635;28;20034;-74
2022/08/16 07:28:50;;;;;;;6.25;5.35;;;22.60;99.90;;;;;;5011246;28;20129;-73
2022/08/16 07:31:17;;;;;;;5.75;4.60;;;22.70;99.90;;;;;;5012241;28;20026;-73
2022/08/16 07:33:43;;;;;;;5.03;4.50;;;22.80;99.90;;;;;;5019630;28;20095;-73
2022/08/16 07:36:10;;;;;;;8.90;4.93;;;23.00;99.90;;;;;;5023595;28;20033;-72
2022/08/16 07:38:37;;;;;;;7.88;4.28;;;23.30;99.90;;;;;;5023589;28;20194;-73
2022/08/16 07:41:03;;;;;;;7.07;5.05;;;23.30;99.90;;;;;;5017061;28;20041;-72
2022/08/16 07:43:30;;;;;;;6.65;4.43;;;23.40;99.90;;;;;;5009299;28;20026;-73
2022/08/16 07:45:56;;;;;;;4.93;4.45;;;23.50;99.90;;;;;;5008322;28;20044;-73
2022/08/16 07:48:21;;;;;;;5.45;4.38;;;23.50;99.90;;;;;;5025283;28;20037;-72
2022/08/16 07:50:47;;;;;;;10.07;4.72;;;23.50;99.90;;;;;;5017819;28;20026;-72
2022/08/16 07:53:13;;;;;;;8.63;4.53;;;23.60;99.90;;;;;;5022320;28;20021;-73
2022/08/16 07:55:40;;;;;;;7.20;4.25;;;23.60;99.90;;;;;;5026671;28;20025;-73
2022/08/16 07:58:05;;;;;;;7.38;4.78;;;23.60;99.90;;;;;;5020410;28;20116;-73
2022/08/16 08:00:32;;;;;;;7.20;3.80;;;23.80;99.90;;;;;;5027527;28;20040;-73
2022/08/16 08:02:59;;;;;;;7.70;4.60;;;23.90;99.90;;;;;;5020972;28;20021;-73
2022/08/16 08:05:26;;;;;;;5.35;4.05;;;24.00;99.90;;;;;;5012725;28;20095;-73
2022/08/16 08:07:52;;;;;;;8.18;4.28;;;24.00;99.90;;;;;;5014057;28;20851;-73
2022/08/16 08:10:19;;;;;;;4.35;3.95;;;24.10;99.90;;;;;;5013900;28;20053;-73
2022/08/16 08:12:47;;;;;;;6.05;4.22;;;24.20;99.90;;;;;;5014648;28;20036;-73
2022/08/16 08:15:13;;;;;;;5.72;4.15;;;24.30;99.90;;;;;;5017808;28;20029;-74
2022/08/16 08:17:40;;;;;;;4.75;3.50;;;24.40;99.90;;;;;;5022867;28;20018;-72
2022/08/16 08:20:09;;;;;;;5.68;3.70;;;24.50;99.90;;;;;;5015647;28;20337;-73
2022/08/16 08:22:36;;;;;;;4.90;3.80;;;24.70;99.90;;;;;;5005842;28;20107;-73
2022/08/16 08:25:02;;;;;;;5.70;3.90;;;24.80;99.90;;;;;;5022540;28;20095;-74
2022/08/16 08:27:28;;;;;;;6.47;3.38;;;24.80;99.90;;;;;;5025783;28;20409;-73
2022/08/16 08:29:53;;;;;;;6.00;3.53;;;24.80;99.90;;;;;;5013200;28;20022;-72
2022/08/16 08:32:20;;;;;;;4.13;3.42;;;24.90;99.90;;;;;;5009848;28;20029;-74
2022/08/16 08:34:46;;;;;;;5.30;3.90;;;25.10;99.90;;;;;;5023631;28;20034;-74
2022/08/16 08:37:12;;;;;;;9.15;4.10;;;25.10;99.90;;;;;;5013708;28;20033;-73
2022/08/16 08:39:39;;;;;;;4.70;3.00;;;25.10;99.90;;;;;;5023004;28;20026;-74
2022/08/16 08:42:05;;;;;;;6.53;3.28;;;25.20;99.90;;;;;;5013263;28;20083;-73
2022/08/16 08:44:32;;;;;;;5.90;2.90;;;25.30;99.90;;;;;;5017097;28;20493;-73
2022/08/16 08:47:01;;;;;;;5.25;3.20;;;25.40;99.90;;;;;;5014600;28;20073;-73
2022/08/16 08:49:29;;;;;;;3.55;3.13;;;25.50;99.90;;;;;;5020097;28;20675;-72
2022/08/16 08:51:55;;;;;;;4.68;2.90;;;25.60;99.90;;;;;;5011182;28;20025;-73
2022/08/16 08:54:21;;;;;;;7.03;2.90;;;25.60;99.90;;;;;;5022855;28;20029;-73
2022/08/16 08:56:46;;;;;;;4.57;2.85;;;25.70;99.90;;;;;;5018577;28;20025;-75
2022/08/16 08:59:12;;;;;;;5.43;2.95;;;25.80;99.90;;;;;;5025563;28;20121;-74
2022/08/16 09:01:39;;;;;;;4.93;3.05;;;26.00;99.90;;;;;;5016544;28;20037;-73
2022/08/16 09:04:06;;;;;;;3.80;3.03;;;26.10;99.90;;;;;;5020024;28;20048;-73
2022/08/16 09:06:35;;;;;;;5.30;2.92;;;26.10;99.90;;;;;;5014332;28;20026;-72
2022/08/16 09:09:02;;;;;;;4.32;3.00;;;26.10;99.90;;;;;;5012288;28;20049;-73
2022/08/16 09:11:28;;;;;;;3.97;2.67;;;26.10;99.60;;;;;;5008938;28;20485;-73
2022/08/16 09:13:54;;;;;;;4.95;2.92;;;26.20;99.70;;;;;;5022430;28;20155;-73
2022/08/16 09:16:19;;;;;;;3.28;2.70;;;26.20;99.00;;;;;;5026636;28;20026;-74
2022/08/16 09:18:45;;;;;;;6.28;2.60;;;26.20;99.00;;;;;;5019369;28;20040;-73
2022/08/16 09:21:12;;;;;;;3.75;2.90;;;26.30;99.40;;;;;;5006260;28;20041;-73
2022/08/16 09:23:38;;;;;;;3.70;2.60;;;26.30;98.90;;;;;;5013739;28;20069;-73
2022/08/16 09:26:06;;;;;;;3.45;2.70;;;26.40;99.20;;;;;;5021112;28;20080;-73
2022/08/16 09:28:33;;;;;;;3.03;2.50;;;26.40;97.90;;;;;;5020550;28;20038;-73
2022/08/16 09:30:59;;;;;;;2.95;2.70;;;26.50;98.00;;;;;;5010330;28;20112;-73
2022/08/16 09:33:26;;;;;;;3.90;3.00;;;26.50;97.10;;;;;;5012512;28;20033;-73
2022/08/16 09:35:52;;;;;;;3.47;2.72;;;26.50;97.50;;;;;;5015800;28;20025;-73
2022/08/16 09:38:17;;;;;;;4.82;2.90;;;26.50;97.30;;;;;;5012537;28;20087;-74
2022/08/16 09:40:45;;;;;;;3.25;2.95;;;26.60;97.30;;;;;;5017672;28;20033;-73
2022/08/16 09:43:14;;;;;;;4.13;2.92;;;26.60;97.00;;;;;;5011426;28;20037;-73
2022/08/16 09:45:41;;;;;;;3.03;2.50;;;26.70;97.00;;;;;;5016276;28;20444;-73
2022/08/16 09:48:09;;;;;;;3.97;2.42;;;26.80;96.50;;;;;;5020016;28;20536;-74
2022/08/16 09:50:36;;;;;;;3.70;2.88;;;26.90;95.50;;;;;;5015679;28;20033;-73
2022/08/16 09:53:08;;;;;;;3.50;2.78;;;27.00;95.30;;;;;;5014369;28;20524;-74
2022/08/16 09:55:34;;;;;;;3.20;2.63;;;27.00;95.00;;;;;;5020445;28;20057;-73
2022/08/16 09:57:59;;;;;;;4.55;2.75;;;27.00;94.80;;;;;;5013667;28;20104;-73
2022/08/16 10:00:25;;;;;;;4.32;2.30;;;27.10;95.50;;;;;;5020283;28;20030;-74
2022/08/16 10:02:52;;;;;;;2.78;2.38;;;27.20;94.50;;;;;;5011952;28;20037;-73
2022/08/16 10:05:18;;;;;;;2.70;2.50;;;27.40;93.70;;;;;;5014149;28;20064;-73
2022/08/16 10:07:46;;;;;;;5.72;2.75;;;27.40;93.80;;;;;;5014891;28;20025;-73
2022/08/16 10:10:13;;;;;;;3.08;2.55;;;27.40;93.90;;;;;;5013312;28;20101;-73
2022/08/16 10:15:26;;;;;;;3.00;2.70;;;27.50;93.70;;;;;;5023755;28;20410;-73
2022/08/16 10:17:54;;;;;;;4.95;2.40;;;27.60;91.80;;;;;;5024955;28;20400;-73
2022/08/16 10:20:23;;;;;;;3.88;2.60;;;27.70;91.00;;;;;;5011569;28;20060;-73
2022/08/16 10:22:48;;;;;;;4.07;2.53;;;27.80;91.30;;;;;;5017241;28;20029;-73
2022/08/16 10:25:14;;;;;;;3.45;2.10;;;27.80;90.80;;;;;;5020861;28;20060;-73
2022/08/16 10:27:39;;;;;;;5.60;1.98;;;27.90;90.40;;;;;;5017226;28;20393;-73
2022/08/16 10:30:06;;;;;;;4.90;2.33;;;28.10;90.20;;;;;;5025985;28;20080;-73
2022/08/16 10:32:33;;;;;;;4.28;2.42;;;28.20;90.60;;;;;;5020275;28;20048;-73
2022/08/16 10:35:02;;;;;;;3.70;2.40;;;28.30;89.90;;;;;;5016669;28;20031;-73
2022/08/16 10:37:27;;;;;;;5.60;2.10;;;28.30;89.90;;;;;;5020451;28;20366;-73
2022/08/16 10:39:53;;;;;;;4.78;2.30;;;28.30;89.60;;;;;;5016673;28;20080;-74
2022/08/16 10:42:19;;;;;;;5.20;2.05;;;28.40;89.20;;;;;;5019737;28;20036;-74
2022/08/16 10:44:44;;;;;;;2.58;2.00;;;28.40;88.40;;;;;;5019841;28;20056;-74
2022/08/16 10:47:10;;;;;;;4.18;2.03;;;28.50;87.20;;;;;;5015439;28;20063;-73
2022/08/16 10:49:36;;;;;;;6.25;2.28;;;28.70;85.90;;;;;;5024409;28;20026;-72
2022/08/16 10:52:03;;;;;;;4.25;1.90;;;28.70;83.70;;;;;;5023966;28;20041;-72
2022/08/16 10:54:29;;;;;;;2.63;2.15;;;28.60;82.80;;;;;;5008307;28;20045;-72
2022/08/16 10:56:56;;;;;;;4.32;2.30;;;28.60;83.40;;;;;;5021235;28;20037;-72
2022/08/16 10:59:21;;;;;;;3.47;2.05;;;28.40;83.30;;;;;;5026562;28;20334;-72
2022/08/16 11:01:47;;;;;;;2.03;1.83;;;28.40;82.30;;;;;;5026083;28;20477;-71
2022/08/16 11:04:13;;;;;;;4.25;1.80;;;28.40;79.70;;;;;;5017788;28;20041;-72
2022/08/16 11:06:40;;;;;;;4.22;1.70;;;28.60;79.00;;;;;;5020831;28;20076;-71
2022/08/16 11:09:05;;;;;;;5.88;1.67;;;28.70;78.80;;;;;;5018899;28;20027;-71
2022/08/16 11:11:31;;;;;;;2.15;1.70;;;29.00;78.30;;;;;;5017531;28;20033;-73
2022/08/16 11:13:57;;;;;;;4.15;2.15;;;29.20;76.50;;;;;;5017113;28;20480;-73
2022/08/16 11:16:22;;;;;;;3.25;1.85;;;29.40;74.90;;;;;;5021301;28;20151;-72
2022/08/16 11:18:48;;;;;;;3.83;2.10;;;29.50;74.50;;;;;;5015600;28;20107;-72
2022/08/16 11:21:14;;;;;;;2.83;1.90;;;29.60;74.00;;;;;;5011139;28;20264;-72
2022/08/16 11:23:40;;;;;;;5.57;1.90;;;29.60;75.20;;;;;;5015275;28;20038;-71
2022/08/16 11:26:06;;;;;;;2.47;1.83;;;29.70;74.00;;;;;;5015915;28;20033;-71
2022/08/16 11:28:33;;;;;;;3.95;1.90;;;29.70;72.10;;;;;;5017030;28;20025;-72
2022/08/16 11:30:59;;;;;;;4.18;2.00;;;29.60;70.70;;;;;;5014640;28;20262;-72
2022/08/16 11:33:25;;;;;;;5.10;2.10;;;29.50;70.40;;;;;;5006968;28;20466;-71
2022/08/16 11:35:50;;;;;;;2.45;2.10;;;29.40;69.10;;;;;;5020321;28;20025;-71
2022/08/16 11:38:20;;;;;;;5.05;2.10;;;29.50;71.80;;;;;;5018770;28;20169;-72
2022/08/16 11:40:55;;;;;;;4.18;2.15;;;29.60;70.40;;;;;;5010517;28;20307;-72
2022/08/16 11:43:30;;;;;;;3.03;2.00;;;29.70;70.10;;;;;;5022860;28;20029;-71
2022/08/16 11:45:58;;;;;;;4.63;2.08;;;29.80;70.30;;;;;;5016193;28;20128;-73
2022/08/16 11:48:26;;;;;;;3.72;2.00;;;29.80;71.00;;;;;;5010782;28;20259;-73
2022/08/16 11:50:52;;;;;;;3.78;2.20;;;29.80;69.70;;;;;;5021345;28;20038;-74
2022/08/16 11:53:20;;;;;;;2.92;2.05;;;29.70;69.10;;;;;;5024701;28;20018;-74
2022/08/16 11:55:45;;;;;;;3.42;2.13;;;29.70;69.80;;;;;;5024045;28;20041;-74
2022/08/16 11:58:11;;;;;;;2.05;1.85;;;29.70;69.30;;;;;;5011374;28;20049;-73
2022/08/16 12:00:39;;;;;;;6.55;2.05;;;29.90;68.80;;;;;;5008253;28;20080;-74
2022/08/16 12:03:05;;;;;;;3.17;2.20;;;30.10;67.40;;;;;;5019929;28;20048;-73
2022/08/16 12:05:31;;;;;;;2.38;1.80;;;30.20;67.20;;;;;;5023493;28;20481;-74
2022/08/16 12:07:57;;;;;;;5.07;1.98;;;30.10;67.10;;;;;;5021713;28;20060;-73
2022/08/16 12:10:25;;;;;;;3.35;2.00;;;30.20;66.30;;;;;;5025476;28;20022;-73
2022/08/16 12:12:51;;;;;;;2.40;1.95;;;30.30;66.80;;;;;;5023803;28;20091;-74
2022/08/16 12:15:18;;;;;;;4.00;2.38;;;30.40;66.40;;;;;;5012296;28;20295;-73
2022/08/16 12:17:44;;;;;;;2.17;1.90;;;30.40;64.80;;;;;;5015485;28;20152;-74
2022/08/16 12:20:17;;;;;;;3.40;2.00;;;30.40;63.90;;;;;;5021414;28;20029;-74
2022/08/16 12:22:42;;;;;;;;;;;30.40;64.60;;;;;;5010671;28;20026;-73
2022/08/16 12:25:12;;;;;;;5.53;2.50;;;30.50;64.10;;;;;;5018831;28;19920;-73
2022/08/16 12:27:39;;;;;;;3.75;2.30;;;30.60;63.10;;;;;;5025762;28;20029;-74
2022/08/16 12:30:08;;;;;;;4.55;2.42;;;30.50;62.50;;;;;;5025276;28;20025;-73
2022/08/16 12:32:34;;;;;;;2.67;2.13;;;30.50;62.50;;;;;;5021005;28;20037;-72
2022/08/16 12:35:00;;;;;;;4.60;2.08;;;30.30;61.50;;;;;;5020765;28;20030;-72
2022/08/16 12:37:26;;;;;;;2.58;2.00;;;30.20;62.50;;;;;;5016674;28;20029;-73
2022/08/16 12:39:54;;;;;;;4.60;2.25;;;30.20;63.00;;;;;;5024005;28;20611;-73
2022/08/16 12:42:21;;;;;;;2.25;1.80;;;30.30;61.00;;;;;;5014022;28;20048;-69
2022/08/16 12:44:48;;;;;;;3.33;2.10;;;30.40;62.40;;;;;;5005285;28;20041;-68
2022/08/16 12:49:59;;;;;;;4.05;2.20;;;30.80;60.30;;;;;;5012504;28;20129;-68